sensor_id;sensor_type;location;lat;lon;timestamp;P1;durP1;ratioP1;P2;durP2;ratioP2
7215;SDS011;3649;48.798;9.798;2024-02-26T00:00:11;2.10;;;2.00;;
7215;SDS011;3649;48.798;9.798;2024-02-26T00:02:38;2.60;;;2.40;;
7215;SDS011;3649;48.798;9.798;2024-02-26T00:05:06;2.37;;;2.17;;
7215;SDS011;3649;48.798;9.798;2024-02-26T00:07:34;2.53;;;2.10;;
7215;SDS011;3649;48.798;9.798;2024-02-26T00:10:01;2.30;;;2.10;;
7215;SDS011;3649;48.798;9.798;2024-02-26T00:12:27;6.83;;;2.40;;
7215;SDS011;3649;48.798;9.798;2024-02-26T00:14:54;2.63;;;2.13;;
7215;SDS011;3649;48.798;9.798;2024-02-26T00:17:24;2.50;;;2.30;;
7215;SDS011;3649;48.798;9.798;2024-02-26T00:19:51;2.80;;;2.60;;
7215;SDS011;3649;48.798;9.798;2024-02-26T00:22:18;2.73;;;2.53;;
7215;SDS011;3649;48.798;9.798;2024-02-26T00:24:45;2.47;;;2.23;;
7215;SDS011;3649;48.798;9.798;2024-02-26T00:27:11;2.40;;;2.30;;
7215;SDS011;3649;48.798;9.798;2024-02-26T00:29:38;2.43;;;2.17;;
7215;SDS011;3649;48.798;9.798;2024-02-26T00:32:05;2.20;;;2.10;;
7215;SDS011;3649;48.798;9.798;2024-02-26T00:34:32;2.03;;;1.93;;
7215;SDS011;3649;48.798;9.798;2024-02-26T00:36:59;1.83;;;1.73;;
7215;SDS011;3649;48.798;9.798;2024-02-26T00:39:26;2.03;;;1.93;;
7215;SDS011;3649;48.798;9.798;2024-02-26T00:41:53;1.90;;;1.80;;
7215;SDS011;3649;48.798;9.798;2024-02-26T00:44:19;1.97;;;1.87;;
7215;SDS011;3649;48.798;9.798;2024-02-26T00:46:46;1.97;;;1.87;;
7215;SDS011;3649;48.798;9.798;2024-02-26T00:49:13;2.00;;;1.90;;
7215;SDS011;3649;48.798;9.798;2024-02-26T00:51:40;2.40;;;2.20;;
7215;SDS011;3649;48.798;9.798;2024-02-26T00:54:07;2.50;;;2.17;;
7215;SDS011;3649;48.798;9.798;2024-02-26T00:56:34;2.03;;;1.90;;
7215;SDS011;3649;48.798;9.798;2024-02-26T00:59:01;1.60;;;1.50;;
7215;SDS011;3649;48.798;9.798;2024-02-26T01:01:28;3.30;;;2.00;;
7215;SDS011;3649;48.798;9.798;2024-02-26T01:03:55;1.83;;;1.73;;
7215;SDS011;3649;48.798;9.798;2024-02-26T01:06:22;1.70;;;1.60;;
7215;SDS011;3649;48.798;9.798;2024-02-26T01:08:49;3.67;;;1.90;;
7215;SDS011;3649;48.798;9.798;2024-02-26T01:11:16;2.10;;;2.00;;
7215;SDS011;3649;48.798;9.798;2024-02-26T01:13:43;2.33;;;2.00;;
7215;SDS011;3649;48.798;9.798;2024-02-26T01:16:10;2.30;;;2.10;;
7215;SDS011;3649;48.798;9.798;2024-02-26T01:18:37;2.80;;;2.07;;
7215;SDS011;3649;48.798;9.798;2024-02-26T01:21:04;2.57;;;2.37;;
7215;SDS011;3649;48.798;9.798;2024-02-26T01:23:34;2.47;;;2.13;;
7215;SDS011;3649;48.798;9.798;2024-02-26T01:26:01;2.10;;;2.00;;
7215;SDS011;3649;48.798;9.798;2024-02-26T01:28:29;3.43;;;1.80;;
7215;SDS011;3649;48.798;9.798;2024-02-26T01:30:56;2.20;;;2.10;;
7215;SDS011;3649;48.798;9.798;2024-02-26T01:33:23;4.70;;;2.20;;
7215;SDS011;3649;48.798;9.798;2024-02-26T01:35:51;2.00;;;1.90;;
7215;SDS011;3649;48.798;9.798;2024-02-26T01:38:19;2.50;;;2.30;;
7215;SDS011;3649;48.798;9.798;2024-02-26T01:40:46;2.70;;;2.50;;
7215;SDS011;3649;48.798;9.798;2024-02-26T01:43:13;2.60;;;2.10;;
7215;SDS011;3649;48.798;9.798;2024-02-26T01:45:39;2.63;;;2.20;;
7215;SDS011;3649;48.798;9.798;2024-02-26T01:48:06;2.73;;;2.40;;
7215;SDS011;3649;48.798;9.798;2024-02-26T01:50:33;2.57;;;2.10;;
7215;SDS011;3649;48.798;9.798;2024-02-26T01:53:00;2.10;;;2.00;;
7215;SDS011;3649;48.798;9.798;2024-02-26T01:55:27;2.10;;;2.00;;
7215;SDS011;3649;48.798;9.798;2024-02-26T01:57:54;3.13;;;2.40;;
7215;SDS011;3649;48.798;9.798;2024-02-26T02:00:22;2.50;;;2.23;;
7215;SDS011;3649;48.798;9.798;2024-02-26T02:02:49;2.20;;;2.00;;
7215;SDS011;3649;48.798;9.798;2024-02-26T02:05:17;3.53;;;2.50;;
7215;SDS011;3649;48.798;9.798;2024-02-26T02:07:46;5.50;;;2.10;;
7215;SDS011;3649;48.798;9.798;2024-02-26T02:10:15;2.33;;;2.13;;
7215;SDS011;3649;48.798;9.798;2024-02-26T02:12:43;2.43;;;2.27;;
7215;SDS011;3649;48.798;9.798;2024-02-26T02:15:10;2.10;;;2.00;;
7215;SDS011;3649;48.798;9.798;2024-02-26T02:17:37;1.97;;;1.87;;
7215;SDS011;3649;48.798;9.798;2024-02-26T02:20:07;3.10;;;1.93;;
7215;SDS011;3649;48.798;9.798;2024-02-26T02:22:42;2.43;;;2.20;;
7215;SDS011;3649;48.798;9.798;2024-02-26T02:25:09;2.00;;;1.90;;
7215;SDS011;3649;48.798;9.798;2024-02-26T02:27:36;2.63;;;2.30;;
7215;SDS011;3649;48.798;9.798;2024-02-26T02:30:04;2.23;;;2.03;;
7215;SDS011;3649;48.798;9.798;2024-02-26T02:32:33;2.30;;;2.10;;
7215;SDS011;3649;48.798;9.798;2024-02-26T02:35:00;2.93;;;1.97;;
7215;SDS011;3649;48.798;9.798;2024-02-26T02:37:27;2.70;;;1.90;;
7215;SDS011;3649;48.798;9.798;2024-02-26T02:39:54;2.37;;;2.20;;
7215;SDS011;3649;48.798;9.798;2024-02-26T02:42:21;1.87;;;1.77;;
7215;SDS011;3649;48.798;9.798;2024-02-26T02:44:48;6.53;;;2.20;;
7215;SDS011;3649;48.798;9.798;2024-02-26T02:47:15;2.03;;;1.93;;
7215;SDS011;3649;48.798;9.798;2024-02-26T02:49:42;2.27;;;2.07;;
7215;SDS011;3649;48.798;9.798;2024-02-26T02:52:09;2.40;;;2.20;;
7215;SDS011;3649;48.798;9.798;2024-02-26T02:54:35;2.67;;;2.10;;
7215;SDS011;3649;48.798;9.798;2024-02-26T02:57:04;3.07;;;1.80;;
7215;SDS011;3649;48.798;9.798;2024-02-26T02:59:31;2.47;;;2.27;;
7215;SDS011;3649;48.798;9.798;2024-02-26T03:01:58;2.40;;;2.20;;
7215;SDS011;3649;48.798;9.798;2024-02-26T03:04:25;3.27;;;2.07;;
7215;SDS011;3649;48.798;9.798;2024-02-26T03:06:52;3.07;;;2.30;;
7215;SDS011;3649;48.798;9.798;2024-02-26T03:09:19;2.23;;;2.03;;
7215;SDS011;3649;48.798;9.798;2024-02-26T03:11:46;3.87;;;2.00;;
7215;SDS011;3649;48.798;9.798;2024-02-26T03:14:13;2.23;;;2.03;;
7215;SDS011;3649;48.798;9.798;2024-02-26T03:16:40;2.97;;;2.03;;
7215;SDS011;3649;48.798;9.798;2024-02-26T03:19:07;3.03;;;1.80;;
7215;SDS011;3649;48.798;9.798;2024-02-26T03:21:34;2.37;;;2.17;;
7215;SDS011;3649;48.798;9.798;2024-02-26T03:24:00;2.10;;;2.00;;
7215;SDS011;3649;48.798;9.798;2024-02-26T03:26:27;3.57;;;2.00;;
7215;SDS011;3649;48.798;9.798;2024-02-26T03:28:54;2.60;;;1.90;;
7215;SDS011;3649;48.798;9.798;2024-02-26T03:31:21;1.70;;;1.60;;
7215;SDS011;3649;48.798;9.798;2024-02-26T03:33:48;2.93;;;2.73;;
7215;SDS011;3649;48.798;9.798;2024-02-26T03:36:15;1.83;;;1.73;;
7215;SDS011;3649;48.798;9.798;2024-02-26T03:38:42;2.53;;;2.00;;
7215;SDS011;3649;48.798;9.798;2024-02-26T03:41:09;2.37;;;1.97;;
7215;SDS011;3649;48.798;9.798;2024-02-26T03:43:36;2.17;;;1.97;;
7215;SDS011;3649;48.798;9.798;2024-02-26T03:46:02;1.90;;;1.80;;
7215;SDS011;3649;48.798;9.798;2024-02-26T03:48:29;2.03;;;1.83;;
7215;SDS011;3649;48.798;9.798;2024-02-26T03:50:56;3.30;;;2.07;;
7215;SDS011;3649;48.798;9.798;2024-02-26T03:53:23;2.57;;;2.07;;
7215;SDS011;3649;48.798;9.798;2024-02-26T03:55:50;2.00;;;1.90;;
7215;SDS011;3649;48.798;9.798;2024-02-26T03:58:18;1.97;;;1.83;;
7215;SDS011;3649;48.798;9.798;2024-02-26T04:00:45;3.17;;;1.93;;
7215;SDS011;3649;48.798;9.798;2024-02-26T04:03:14;3.37;;;2.17;;
7215;SDS011;3649;48.798;9.798;2024-02-26T04:05:41;2.57;;;2.20;;
7215;SDS011;3649;48.798;9.798;2024-02-26T04:08:08;2.33;;;2.10;;
7215;SDS011;3649;48.798;9.798;2024-02-26T04:10:37;5.00;;;2.40;;
7215;SDS011;3649;48.798;9.798;2024-02-26T04:13:07;2.27;;;2.13;;
7215;SDS011;3649;48.798;9.798;2024-02-26T04:15:34;1.97;;;1.87;;
7215;SDS011;3649;48.798;9.798;2024-02-26T04:18:01;2.23;;;2.10;;
7215;SDS011;3649;48.798;9.798;2024-02-26T04:20:29;2.77;;;2.53;;
7215;SDS011;3649;48.798;9.798;2024-02-26T04:22:56;1.80;;;1.70;;
7215;SDS011;3649;48.798;9.798;2024-02-26T04:25:23;2.10;;;2.00;;
7215;SDS011;3649;48.798;9.798;2024-02-26T04:27:50;2.63;;;2.43;;
7215;SDS011;3649;48.798;9.798;2024-02-26T04:30:16;2.37;;;2.17;;
7215;SDS011;3649;48.798;9.798;2024-02-26T04:32:44;2.57;;;2.37;;
7215;SDS011;3649;48.798;9.798;2024-02-26T04:35:11;2.30;;;2.20;;
7215;SDS011;3649;48.798;9.798;2024-02-26T04:37:38;2.40;;;2.20;;
7215;SDS011;3649;48.798;9.798;2024-02-26T04:40:05;2.50;;;2.30;;
7215;SDS011;3649;48.798;9.798;2024-02-26T04:42:32;2.57;;;2.30;;
7215;SDS011;3649;48.798;9.798;2024-02-26T04:44:59;4.53;;;2.23;;
7215;SDS011;3649;48.798;9.798;2024-02-26T04:47:26;2.80;;;2.57;;
7215;SDS011;3649;48.798;9.798;2024-02-26T04:49:53;2.93;;;2.40;;
7215;SDS011;3649;48.798;9.798;2024-02-26T04:52:21;2.67;;;2.00;;
7215;SDS011;3649;48.798;9.798;2024-02-26T04:54:48;3.00;;;2.70;;
7215;SDS011;3649;48.798;9.798;2024-02-26T04:57:15;2.30;;;2.10;;
7215;SDS011;3649;48.798;9.798;2024-02-26T04:59:44;2.80;;;2.43;;
7215;SDS011;3649;48.798;9.798;2024-02-26T05:02:12;3.97;;;2.77;;
7215;SDS011;3649;48.798;9.798;2024-02-26T05:04:40;2.70;;;2.47;;
7215;SDS011;3649;48.798;9.798;2024-02-26T05:07:07;2.67;;;2.47;;
7215;SDS011;3649;48.798;9.798;2024-02-26T05:09:34;4.77;;;2.37;;
7215;SDS011;3649;48.798;9.798;2024-02-26T05:12:01;2.10;;;2.00;;
7215;SDS011;3649;48.798;9.798;2024-02-26T05:14:28;3.63;;;2.40;;
7215;SDS011;3649;48.798;9.798;2024-02-26T05:16:55;2.50;;;2.30;;
7215;SDS011;3649;48.798;9.798;2024-02-26T05:19:22;3.10;;;2.80;;
7215;SDS011;3649;48.798;9.798;2024-02-26T05:21:49;3.63;;;2.70;;
7215;SDS011;3649;48.798;9.798;2024-02-26T05:24:16;3.33;;;3.07;;
7215;SDS011;3649;48.798;9.798;2024-02-26T05:26:44;3.60;;;2.60;;
7215;SDS011;3649;48.798;9.798;2024-02-26T05:29:12;3.57;;;3.27;;
7215;SDS011;3649;48.798;9.798;2024-02-26T05:31:39;4.30;;;2.87;;
7215;SDS011;3649;48.798;9.798;2024-02-26T05:34:08;3.13;;;2.83;;
7215;SDS011;3649;48.798;9.798;2024-02-26T05:36:35;3.23;;;2.90;;
7215;SDS011;3649;48.798;9.798;2024-02-26T05:39:02;3.17;;;2.87;;
7215;SDS011;3649;48.798;9.798;2024-02-26T05:41:30;4.10;;;2.97;;
7215;SDS011;3649;48.798;9.798;2024-02-26T05:43:57;3.77;;;2.33;;
7215;SDS011;3649;48.798;9.798;2024-02-26T05:46:25;5.17;;;3.17;;
7215;SDS011;3649;48.798;9.798;2024-02-26T05:48:53;3.20;;;2.90;;
7215;SDS011;3649;48.798;9.798;2024-02-26T05:51:20;4.53;;;3.27;;
7215;SDS011;3649;48.798;9.798;2024-02-26T05:53:47;3.67;;;2.70;;
7215;SDS011;3649;48.798;9.798;2024-02-26T05:56:21;2.80;;;2.60;;
7215;SDS011;3649;48.798;9.798;2024-02-26T05:58:49;3.63;;;2.87;;
7215;SDS011;3649;48.798;9.798;2024-02-26T06:01:16;3.70;;;3.27;;
7215;SDS011;3649;48.798;9.798;2024-02-26T06:03:44;3.10;;;2.80;;
7215;SDS011;3649;48.798;9.798;2024-02-26T06:06:11;3.20;;;3.00;;
7215;SDS011;3649;48.798;9.798;2024-02-26T06:08:39;2.60;;;2.40;;
7215;SDS011;3649;48.798;9.798;2024-02-26T06:11:06;4.03;;;2.93;;
7215;SDS011;3649;48.798;9.798;2024-02-26T06:13:34;3.10;;;2.80;;
7215;SDS011;3649;48.798;9.798;2024-02-26T06:16:01;3.80;;;3.27;;
7215;SDS011;3649;48.798;9.798;2024-02-26T06:18:28;3.20;;;2.90;;
7215;SDS011;3649;48.798;9.798;2024-02-26T06:20:56;4.70;;;3.60;;
7215;SDS011;3649;48.798;9.798;2024-02-26T06:23:23;5.10;;;3.83;;
7215;SDS011;3649;48.798;9.798;2024-02-26T06:25:50;14.27;;;5.53;;
7215;SDS011;3649;48.798;9.798;2024-02-26T06:28:17;40.13;;;14.43;;
7215;SDS011;3649;48.798;9.798;2024-02-26T06:30:44;29.23;;;10.13;;
7215;SDS011;3649;48.798;9.798;2024-02-26T06:33:12;14.27;;;6.13;;
7215;SDS011;3649;48.798;9.798;2024-02-26T06:35:40;15.50;;;6.80;;
7215;SDS011;3649;48.798;9.798;2024-02-26T06:38:08;6.73;;;4.80;;
7215;SDS011;3649;48.798;9.798;2024-02-26T06:40:36;8.50;;;5.00;;
7215;SDS011;3649;48.798;9.798;2024-02-26T06:43:02;4.77;;;3.77;;
7215;SDS011;3649;48.798;9.798;2024-02-26T06:45:29;5.67;;;4.03;;
7215;SDS011;3649;48.798;9.798;2024-02-26T06:47:57;3.30;;;2.80;;
7215;SDS011;3649;48.798;9.798;2024-02-26T06:50:24;3.30;;;3.00;;
7215;SDS011;3649;48.798;9.798;2024-02-26T06:52:51;5.57;;;2.87;;
7215;SDS011;3649;48.798;9.798;2024-02-26T06:55:18;4.17;;;2.80;;
7215;SDS011;3649;48.798;9.798;2024-02-26T06:57:45;7.43;;;5.20;;
7215;SDS011;3649;48.798;9.798;2024-02-26T07:00:12;5.30;;;4.33;;
7215;SDS011;3649;48.798;9.798;2024-02-26T07:02:42;5.17;;;3.97;;
7215;SDS011;3649;48.798;9.798;2024-02-26T07:05:09;8.00;;;3.30;;
7215;SDS011;3649;48.798;9.798;2024-02-26T07:07:36;3.83;;;3.00;;
7215;SDS011;3649;48.798;9.798;2024-02-26T07:10:03;6.50;;;3.63;;
7215;SDS011;3649;48.798;9.798;2024-02-26T07:12:32;3.30;;;3.00;;
7215;SDS011;3649;48.798;9.798;2024-02-26T07:15:00;5.53;;;3.10;;
7215;SDS011;3649;48.798;9.798;2024-02-26T07:17:27;4.00;;;3.60;;
7215;SDS011;3649;48.798;9.798;2024-02-26T07:19:55;3.40;;;3.07;;
7215;SDS011;3649;48.798;9.798;2024-02-26T07:22:22;3.73;;;2.90;;
7215;SDS011;3649;48.798;9.798;2024-02-26T07:24:50;4.80;;;3.33;;
7215;SDS011;3649;48.798;9.798;2024-02-26T07:27:18;4.10;;;3.23;;
7215;SDS011;3649;48.798;9.798;2024-02-26T07:29:45;5.83;;;3.40;;
7215;SDS011;3649;48.798;9.798;2024-02-26T07:32:12;5.83;;;3.70;;
7215;SDS011;3649;48.798;9.798;2024-02-26T07:34:40;5.03;;;3.50;;
7215;SDS011;3649;48.798;9.798;2024-02-26T07:37:11;3.63;;;3.30;;
7215;SDS011;3649;48.798;9.798;2024-02-26T07:39:38;4.87;;;3.30;;
7215;SDS011;3649;48.798;9.798;2024-02-26T07:42:05;7.63;;;3.70;;
7215;SDS011;3649;48.798;9.798;2024-02-26T07:44:33;5.50;;;3.30;;
7215;SDS011;3649;48.798;9.798;2024-02-26T07:47:00;7.17;;;3.30;;
7215;SDS011;3649;48.798;9.798;2024-02-26T07:49:27;4.73;;;3.30;;
7215;SDS011;3649;48.798;9.798;2024-02-26T07:51:54;7.57;;;4.30;;
7215;SDS011;3649;48.798;9.798;2024-02-26T07:54:24;4.60;;;4.13;;
7215;SDS011;3649;48.798;9.798;2024-02-26T07:56:51;6.80;;;3.53;;
7215;SDS011;3649;48.798;9.798;2024-02-26T07:59:18;5.60;;;3.90;;
7215;SDS011;3649;48.798;9.798;2024-02-26T08:01:49;5.70;;;4.27;;
7215;SDS011;3649;48.798;9.798;2024-02-26T08:04:23;13.70;;;8.43;;
7215;SDS011;3649;48.798;9.798;2024-02-26T08:06:51;4.40;;;3.77;;
7215;SDS011;3649;48.798;9.798;2024-02-26T08:09:18;5.03;;;4.13;;
7215;SDS011;3649;48.798;9.798;2024-02-26T08:11:45;5.50;;;3.90;;
7215;SDS011;3649;48.798;9.798;2024-02-26T08:14:12;4.67;;;3.47;;
7215;SDS011;3649;48.798;9.798;2024-02-26T08:16:40;4.03;;;3.63;;
7215;SDS011;3649;48.798;9.798;2024-02-26T08:19:07;4.77;;;3.80;;
7215;SDS011;3649;48.798;9.798;2024-02-26T08:21:37;3.87;;;3.57;;
7215;SDS011;3649;48.798;9.798;2024-02-26T08:24:04;7.83;;;4.43;;
7215;SDS011;3649;48.798;9.798;2024-02-26T08:26:31;5.33;;;4.07;;
7215;SDS011;3649;48.798;9.798;2024-02-26T08:28:58;4.20;;;3.80;;
7215;SDS011;3649;48.798;9.798;2024-02-26T08:31:25;7.53;;;4.10;;
7215;SDS011;3649;48.798;9.798;2024-02-26T08:33:53;5.50;;;4.37;;
7215;SDS011;3649;48.798;9.798;2024-02-26T08:36:20;5.93;;;4.20;;
7215;SDS011;3649;48.798;9.798;2024-02-26T08:38:47;5.80;;;4.20;;
7215;SDS011;3649;48.798;9.798;2024-02-26T08:41:14;4.80;;;4.00;;
7215;SDS011;3649;48.798;9.798;2024-02-26T08:43:41;5.27;;;4.77;;
7215;SDS011;3649;48.798;9.798;2024-02-26T08:46:08;5.87;;;4.13;;
7215;SDS011;3649;48.798;9.798;2024-02-26T08:48:36;6.27;;;3.67;;
7215;SDS011;3649;48.798;9.798;2024-02-26T08:51:06;8.40;;;5.40;;
7215;SDS011;3649;48.798;9.798;2024-02-26T08:53:34;7.23;;;4.87;;
7215;SDS011;3649;48.798;9.798;2024-02-26T08:56:09;5.27;;;3.60;;
7215;SDS011;3649;48.798;9.798;2024-02-26T08:58:43;4.07;;;3.60;;
7215;SDS011;3649;48.798;9.798;2024-02-26T09:01:10;5.87;;;4.07;;
7215;SDS011;3649;48.798;9.798;2024-02-26T09:03:37;5.40;;;4.43;;
7215;SDS011;3649;48.798;9.798;2024-02-26T09:06:04;5.60;;;4.40;;
7215;SDS011;3649;48.798;9.798;2024-02-26T09:08:33;9.53;;;4.50;;
7215;SDS011;3649;48.798;9.798;2024-02-26T09:11:02;4.07;;;3.63;;
7215;SDS011;3649;48.798;9.798;2024-02-26T09:13:30;8.03;;;3.67;;
7215;SDS011;3649;48.798;9.798;2024-02-26T09:15:56;5.07;;;4.07;;
7215;SDS011;3649;48.798;9.798;2024-02-26T09:18:25;4.37;;;3.50;;
7215;SDS011;3649;48.798;9.798;2024-02-26T09:20:55;4.93;;;3.37;;
7215;SDS011;3649;48.798;9.798;2024-02-26T09:23:22;4.53;;;3.70;;
7215;SDS011;3649;48.798;9.798;2024-02-26T09:25:49;6.33;;;3.87;;
7215;SDS011;3649;48.798;9.798;2024-02-26T09:28:16;4.37;;;3.63;;
7215;SDS011;3649;48.798;9.798;2024-02-26T09:30:44;10.00;;;4.67;;
7215;SDS011;3649;48.798;9.798;2024-02-26T09:33:11;7.93;;;4.40;;
7215;SDS011;3649;48.798;9.798;2024-02-26T09:35:40;4.43;;;4.03;;
7215;SDS011;3649;48.798;9.798;2024-02-26T09:38:07;7.90;;;4.33;;
7215;SDS011;3649;48.798;9.798;2024-02-26T09:40:35;5.70;;;4.37;;
7215;SDS011;3649;48.798;9.798;2024-02-26T09:43:04;9.83;;;4.67;;
7215;SDS011;3649;48.798;9.798;2024-02-26T09:45:32;5.83;;;4.43;;
7215;SDS011;3649;48.798;9.798;2024-02-26T09:48:01;4.50;;;3.70;;
7215;SDS011;3649;48.798;9.798;2024-02-26T09:50:31;3.73;;;3.43;;
7215;SDS011;3649;48.798;9.798;2024-02-26T09:52:58;4.30;;;3.90;;
7215;SDS011;3649;48.798;9.798;2024-02-26T09:55:28;7.30;;;4.03;;
7215;SDS011;3649;48.798;9.798;2024-02-26T09:57:55;5.57;;;4.17;;
7215;SDS011;3649;48.798;9.798;2024-02-26T10:00:24;6.67;;;3.93;;
7215;SDS011;3649;48.798;9.798;2024-02-26T10:02:59;7.90;;;4.63;;
7215;SDS011;3649;48.798;9.798;2024-02-26T10:05:31;5.90;;;4.33;;
7215;SDS011;3649;48.798;9.798;2024-02-26T10:08:00;4.13;;;3.27;;
7215;SDS011;3649;48.798;9.798;2024-02-26T10:10:28;5.37;;;4.17;;
7215;SDS011;3649;48.798;9.798;2024-02-26T10:12:55;4.67;;;4.20;;
7215;SDS011;3649;48.798;9.798;2024-02-26T10:15:22;3.83;;;3.40;;
7215;SDS011;3649;48.798;9.798;2024-02-26T10:17:49;5.20;;;4.00;;
7215;SDS011;3649;48.798;9.798;2024-02-26T10:20:17;5.23;;;3.90;;
7215;SDS011;3649;48.798;9.798;2024-02-26T10:22:45;3.80;;;3.50;;
7215;SDS011;3649;48.798;9.798;2024-02-26T10:25:12;3.63;;;3.30;;
7215;SDS011;3649;48.798;9.798;2024-02-26T10:27:40;5.70;;;3.50;;
7215;SDS011;3649;48.798;9.798;2024-02-26T10:32:45;5.10;;;3.33;;
7215;SDS011;3649;48.798;9.798;2024-02-26T10:35:15;4.67;;;3.40;;
7215;SDS011;3649;48.798;9.798;2024-02-26T10:37:44;7.87;;;3.80;;
7215;SDS011;3649;48.798;9.798;2024-02-26T10:40:13;6.47;;;3.63;;
7215;SDS011;3649;48.798;9.798;2024-02-26T10:42:41;6.20;;;4.20;;
7215;SDS011;3649;48.798;9.798;2024-02-26T10:45:08;5.60;;;4.50;;
7215;SDS011;3649;48.798;9.798;2024-02-26T10:47:36;4.30;;;3.67;;
7215;SDS011;3649;48.798;9.798;2024-02-26T10:50:04;5.00;;;4.47;;
7215;SDS011;3649;48.798;9.798;2024-02-26T10:52:32;4.63;;;4.17;;
7215;SDS011;3649;48.798;9.798;2024-02-26T10:55:01;4.30;;;3.73;;
7215;SDS011;3649;48.798;9.798;2024-02-26T10:57:38;5.77;;;3.77;;
7215;SDS011;3649;48.798;9.798;2024-02-26T11:00:06;3.87;;;3.57;;
7215;SDS011;3649;48.798;9.798;2024-02-26T11:02:36;4.90;;;3.93;;
7215;SDS011;3649;48.798;9.798;2024-02-26T11:05:05;5.87;;;3.80;;
7215;SDS011;3649;48.798;9.798;2024-02-26T11:07:36;3.70;;;3.40;;
7215;SDS011;3649;48.798;9.798;2024-02-26T11:10:04;3.20;;;2.90;;
7215;SDS011;3649;48.798;9.798;2024-02-26T11:12:33;4.90;;;3.67;;
7215;SDS011;3649;48.798;9.798;2024-02-26T11:15:04;4.93;;;3.47;;
7215;SDS011;3649;48.798;9.798;2024-02-26T11:17:32;3.80;;;3.30;;
7215;SDS011;3649;48.798;9.798;2024-02-26T11:20:00;3.47;;;3.17;;
7215;SDS011;3649;48.798;9.798;2024-02-26T11:22:30;3.33;;;3.10;;
7215;SDS011;3649;48.798;9.798;2024-02-26T11:24:58;3.13;;;2.83;;
7215;SDS011;3649;48.798;9.798;2024-02-26T11:27:29;3.10;;;2.90;;
7215;SDS011;3649;48.798;9.798;2024-02-26T11:30:01;3.10;;;2.90;;
7215;SDS011;3649;48.798;9.798;2024-02-26T11:32:32;5.10;;;3.00;;
7215;SDS011;3649;48.798;9.798;2024-02-26T11:35:01;3.27;;;2.97;;
7215;SDS011;3649;48.798;9.798;2024-02-26T11:37:30;3.07;;;2.77;;
7215;SDS011;3649;48.798;9.798;2024-02-26T11:40:06;2.70;;;2.50;;
7215;SDS011;3649;48.798;9.798;2024-02-26T11:42:47;3.33;;;2.73;;
7215;SDS011;3649;48.798;9.798;2024-02-26T11:48:14;3.00;;;2.70;;
7215;SDS011;3649;48.798;9.798;2024-02-26T11:50:42;3.00;;;2.80;;
7215;SDS011;3649;48.798;9.798;2024-02-26T11:53:31;3.00;;;2.70;;
7215;SDS011;3649;48.798;9.798;2024-02-26T11:58:43;4.33;;;2.87;;
7215;SDS011;3649;48.798;9.798;2024-02-26T12:04:07;4.23;;;2.90;;
7215;SDS011;3649;48.798;9.798;2024-02-26T12:06:41;4.90;;;3.80;;
7215;SDS011;3649;48.798;9.798;2024-02-26T12:09:09;5.03;;;3.07;;
7215;SDS011;3649;48.798;9.798;2024-02-26T12:11:39;6.47;;;2.77;;
7215;SDS011;3649;48.798;9.798;2024-02-26T12:14:07;8.03;;;3.27;;
7215;SDS011;3649;48.798;9.798;2024-02-26T12:19:07;6.13;;;3.53;;
7215;SDS011;3649;48.798;9.798;2024-02-26T12:21:36;8.77;;;3.43;;
7215;SDS011;3649;48.798;9.798;2024-02-26T12:24:10;7.57;;;2.83;;
7215;SDS011;3649;48.798;9.798;2024-02-26T12:26:47;5.87;;;2.93;;
7215;SDS011;3649;48.798;9.798;2024-02-26T12:29:14;7.00;;;2.93;;
7215;SDS011;3649;48.798;9.798;2024-02-26T12:31:41;4.80;;;3.03;;
7215;SDS011;3649;48.798;9.798;2024-02-26T12:34:09;3.97;;;3.57;;
7215;SDS011;3649;48.798;9.798;2024-02-26T12:36:36;6.03;;;3.47;;
7215;SDS011;3649;48.798;9.798;2024-02-26T12:39:05;4.57;;;3.30;;
7215;SDS011;3649;48.798;9.798;2024-02-26T12:41:32;3.47;;;2.80;;
7215;SDS011;3649;48.798;9.798;2024-02-26T12:44:00;4.03;;;3.57;;
7215;SDS011;3649;48.798;9.798;2024-02-26T12:46:27;5.90;;;4.03;;
7215;SDS011;3649;48.798;9.798;2024-02-26T12:48:58;3.93;;;3.40;;
7215;SDS011;3649;48.798;9.798;2024-02-26T12:51:26;3.20;;;2.90;;
7215;SDS011;3649;48.798;9.798;2024-02-26T12:53:53;4.27;;;3.83;;
7215;SDS011;3649;48.798;9.798;2024-02-26T12:56:22;3.67;;;3.00;;
7215;SDS011;3649;48.798;9.798;2024-02-26T12:58:50;4.13;;;3.70;;
7215;SDS011;3649;48.798;9.798;2024-02-26T13:01:19;3.27;;;2.97;;
7215;SDS011;3649;48.798;9.798;2024-02-26T13:03:49;3.40;;;3.10;;
7215;SDS011;3649;48.798;9.798;2024-02-26T13:06:17;2.90;;;2.70;;
7215;SDS011;3649;48.798;9.798;2024-02-26T13:08:45;2.87;;;2.67;;
7215;SDS011;3649;48.798;9.798;2024-02-26T13:11:13;4.80;;;3.40;;
7215;SDS011;3649;48.798;9.798;2024-02-26T13:13:41;3.63;;;3.17;;
7215;SDS011;3649;48.798;9.798;2024-02-26T13:16:10;4.20;;;3.80;;
7215;SDS011;3649;48.798;9.798;2024-02-26T13:18:41;5.37;;;3.60;;
7215;SDS011;3649;48.798;9.798;2024-02-26T13:21:10;4.43;;;4.03;;
7215;SDS011;3649;48.798;9.798;2024-02-26T13:23:42;3.60;;;3.30;;
7215;SDS011;3649;48.798;9.798;2024-02-26T13:26:11;5.13;;;4.27;;
7215;SDS011;3649;48.798;9.798;2024-02-26T13:28:39;9.47;;;4.30;;
7215;SDS011;3649;48.798;9.798;2024-02-26T13:31:06;8.33;;;4.20;;
7215;SDS011;3649;48.798;9.798;2024-02-26T13:33:34;5.70;;;4.17;;
7215;SDS011;3649;48.798;9.798;2024-02-26T13:36:02;5.50;;;4.53;;
7215;SDS011;3649;48.798;9.798;2024-02-26T13:38:30;7.23;;;4.40;;
7215;SDS011;3649;48.798;9.798;2024-02-26T13:40:57;5.60;;;3.77;;
7215;SDS011;3649;48.798;9.798;2024-02-26T13:43:24;5.43;;;4.00;;
7215;SDS011;3649;48.798;9.798;2024-02-26T13:45:51;6.20;;;4.20;;
7215;SDS011;3649;48.798;9.798;2024-02-26T13:48:18;5.47;;;4.33;;
7215;SDS011;3649;48.798;9.798;2024-02-26T13:50:45;4.37;;;3.93;;
7215;SDS011;3649;48.798;9.798;2024-02-26T13:53:13;7.43;;;4.43;;
7215;SDS011;3649;48.798;9.798;2024-02-26T13:55:40;5.03;;;4.00;;
7215;SDS011;3649;48.798;9.798;2024-02-26T13:58:11;4.83;;;4.13;;
7215;SDS011;3649;48.798;9.798;2024-02-26T14:00:43;6.67;;;4.77;;
7215;SDS011;3649;48.798;9.798;2024-02-26T14:03:10;5.33;;;4.27;;
7215;SDS011;3649;48.798;9.798;2024-02-26T14:05:37;6.03;;;4.33;;
7215;SDS011;3649;48.798;9.798;2024-02-26T14:08:05;7.00;;;4.40;;
7215;SDS011;3649;48.798;9.798;2024-02-26T14:10:32;5.20;;;4.70;;
7215;SDS011;3649;48.798;9.798;2024-02-26T14:12:59;7.03;;;4.80;;
7215;SDS011;3649;48.798;9.798;2024-02-26T14:15:27;6.47;;;4.67;;
7215;SDS011;3649;48.798;9.798;2024-02-26T14:17:55;10.47;;;5.37;;
7215;SDS011;3649;48.798;9.798;2024-02-26T14:20:23;5.27;;;4.53;;
7215;SDS011;3649;48.798;9.798;2024-02-26T14:22:51;7.43;;;5.03;;
7215;SDS011;3649;48.798;9.798;2024-02-26T14:25:21;6.87;;;4.90;;
7215;SDS011;3649;48.798;9.798;2024-02-26T14:27:48;7.23;;;5.83;;
7215;SDS011;3649;48.798;9.798;2024-02-26T14:30:15;7.47;;;5.40;;
7215;SDS011;3649;48.798;9.798;2024-02-26T14:32:42;8.73;;;5.97;;
7215;SDS011;3649;48.798;9.798;2024-02-26T14:35:10;8.77;;;7.23;;
7215;SDS011;3649;48.798;9.798;2024-02-26T14:37:43;7.33;;;6.40;;
7215;SDS011;3649;48.798;9.798;2024-02-26T14:40:14;10.17;;;6.03;;
7215;SDS011;3649;48.798;9.798;2024-02-26T14:42:41;7.67;;;5.50;;
7215;SDS011;3649;48.798;9.798;2024-02-26T14:45:09;6.60;;;4.83;;
7215;SDS011;3649;48.798;9.798;2024-02-26T14:47:38;8.33;;;5.10;;
7215;SDS011;3649;48.798;9.798;2024-02-26T14:50:05;6.07;;;4.97;;
7215;SDS011;3649;48.798;9.798;2024-02-26T14:52:33;5.67;;;5.17;;
7215;SDS011;3649;48.798;9.798;2024-02-26T14:55:00;7.23;;;4.33;;
7215;SDS011;3649;48.798;9.798;2024-02-26T14:57:27;5.77;;;4.50;;
7215;SDS011;3649;48.798;9.798;2024-02-26T14:59:53;6.53;;;4.67;;
7215;SDS011;3649;48.798;9.798;2024-02-26T15:02:20;8.60;;;4.87;;
7215;SDS011;3649;48.798;9.798;2024-02-26T15:04:47;6.83;;;4.70;;
7215;SDS011;3649;48.798;9.798;2024-02-26T15:07:15;5.03;;;3.40;;
7215;SDS011;3649;48.798;9.798;2024-02-26T15:09:42;4.50;;;4.10;;
7215;SDS011;3649;48.798;9.798;2024-02-26T15:12:09;7.07;;;3.27;;
7215;SDS011;3649;48.798;9.798;2024-02-26T15:14:37;7.23;;;3.40;;
7215;SDS011;3649;48.798;9.798;2024-02-26T15:17:05;4.43;;;3.37;;
7215;SDS011;3649;48.798;9.798;2024-02-26T15:19:36;6.10;;;2.77;;
7215;SDS011;3649;48.798;9.798;2024-02-26T15:22:04;4.80;;;3.30;;
7215;SDS011;3649;48.798;9.798;2024-02-26T15:24:31;4.70;;;3.03;;
7215;SDS011;3649;48.798;9.798;2024-02-26T15:26:58;4.03;;;2.57;;
7215;SDS011;3649;48.798;9.798;2024-02-26T15:29:25;7.13;;;2.90;;
7215;SDS011;3649;48.798;9.798;2024-02-26T15:31:52;3.43;;;2.80;;